• Join FlightAware (Why Join?)
  • Login
  • US Flag 
11:48PM EDT


 

Airport Tracker/Info


-or-


 

Live Flight TrackerFlight Track Log ✈ CPZ5714 ✈ 16-Oct-2013 ✈ KMSP - KBOI

Flight Track Log - Related Links

Times and Time Zones

All times are in EDT time to prevent confusion due to time zone crossing. See the CPZ5714 flight status page for this flight to view local times or setup timezone preferences in your user account.

Time Position Orientation Groundspeed Altitude Reporting Facility
EDT Latitude Longitude Course Direction KTS MPH feet Rate Location/Type
10:48PM 44.8672 -93.0836 275° West 217 250 3,300  Level Minneapolis Center
10:49PM 44.9119 -93.1089 338° Northwest 235 270 5,800 2,520 Climbing Minneapolis Center
10:50PM 44.9088 -93.8699 281° West  Level Estimated
10:50PM 44.9256 -93.2081 281° West 260 299 8,500  Level Minneapolis Center
10:51PM 44.9149 -94.0320 283° West  Level Estimated
10:51PM 44.9403 -93.3214 280° West 299 344 10,200  Level Minneapolis Center
10:52PM 44.9208 -94.1942 278° West  Level Estimated
10:52PM 44.9586 -93.4517 281° West 341 392 12,400  Level Minneapolis Center
10:53PM 44.9264 -94.3563 275° West  Level Estimated
10:53PM 44.9764 -93.5856 281° West 350 403 14,500  Level Minneapolis Center
10:54PM 44.9950 -93.7269 281° West 367 422 16,600 2,040 Climbing Minneapolis Center
10:55PM 45.0164 -93.9008 280° West 374 430 18,800 1,980 Climbing Minneapolis Center
10:56PM 45.0364 -94.0522 281° West 389 448 20,700 1,680 Climbing Minneapolis Center
10:57PM 45.0561 -94.2061 280° West 397 457 22,300 1,500 Climbing Minneapolis Center
10:58PM 45.0764 -94.3639 280° West 407 468 23,800 1,260 Climbing Minneapolis Center
10:59PM 45.0953 -94.5267 279° West 418 481 25,000 1,260 Climbing Minneapolis Center
11:00PM 45.1133 -94.7069 278° West 427 491 26,400 1,080 Climbing Minneapolis Center
11:01PM 45.1297 -94.8778 278° West 435 501 27,300 900 Climbing Minneapolis Center
11:02PM 45.1467 -95.0508 278° West 444 511 28,300 840 Climbing Minneapolis Center
11:04PM 45.1633 -95.2256 278° West 449 517 29,100 900 Climbing Minneapolis Center
11:05PM 45.1792 -95.4025 277° West 454 522 30,200 960 Climbing Minneapolis Center
11:06PM 45.1956 -95.5786 278° West 454 522 31,100 900 Climbing Minneapolis Center
11:07PM 45.2156 -95.7903 278° West 454 522 32,100 840 Climbing Minneapolis Center
11:08PM 45.2322 -95.9647 278° West 451 519 32,900 780 Climbing Minneapolis Center
11:09PM 45.2469 -96.1383 277° West 446 513 33,700 480 Climbing Minneapolis Center
11:10PM 45.2617 -96.3119 277° West 446 513 34,000 120 Climbing Minneapolis Center
11:11PM 45.2764 -96.4883 277° West 450 518 34,000  Level Minneapolis Center
11:12PM 45.2850 -96.6656 274° West 453 521 34,000  Level Minneapolis Center
11:13PM 45.2839 -96.8425 270° West 451 519 34,100 360 Climbing Minneapolis Center
11:14PM 45.2842 -97.0172 270° West 448 516 34,800 720 Climbing Minneapolis Center
11:15PM 45.2819 -97.2264 269° West 445 512 35,600 540 Climbing Minneapolis Center
11:16PM 45.2817 -97.3981 270° West 441 507 36,000 180 Climbing Minneapolis Center
11:17PM 45.2792 -97.5708 269° West 440 506 36,000  Level Minneapolis Center
11:18PM 45.2783 -97.7458 270° West 444 511 36,000  Level Minneapolis Center
11:19PM 45.2764 -97.9203 269° West 444 511 36,000  Level Minneapolis Center
11:20PM 45.2747 -98.1047 269° West 444 511 36,000  Level Minneapolis Center
11:21PM 45.2717 -98.2783 269° West 442 509 36,000  Level Minneapolis Center
11:22PM 45.2689 -98.4522 269° West 441 507 36,000  Level Minneapolis Center
11:23PM 45.2653 -98.6264 268° West 442 509 36,000  Level Minneapolis Center
11:24PM 45.2628 -98.7989 269° West 440 506 36,000  Level Minneapolis Center
11:25PM 45.2581 -98.9714 268° West 438 504 36,000  Level Minneapolis Center
11:26PM 45.2539 -99.1447 268° West 440 506 36,000  Level Minneapolis Center
11:27PM 45.2492 -99.3208 268° West 445 512 36,000  Level Minneapolis Center
11:28PM 45.2453 -99.4958 268° West 448 516 36,000  Level Minneapolis Center
11:29PM 45.2403 -99.7056 268° West 447 514 36,000  Level Minneapolis Center
11:30PM 45.2361 -99.8781 268° West 447 514 36,000  Level Minneapolis Center
11:31PM 45.2297 -100.0503 267° West 446 513 36,000  Level Minneapolis Center
11:32PM 45.2242 -100.2219 267° West 444 511 36,000  Level Minneapolis Center
11:33PM 45.2178 -100.3919 267° West 439 505 36,000  Level Minneapolis Center
11:34PM 45.2119 -100.5658 267° West 442 509 36,000  Level Minneapolis Center
11:35PM 45.2058 -100.7383 267° West 441 507 36,000  Level Minneapolis Center
11:36PM 45.1994 -100.9094 267° West 438 504 36,000  Level Minneapolis Center
11:37PM 45.1936 -101.0783 267° West 433 498 36,000  Level Minneapolis Center
11:38PM 45.1869 -101.2472 267° West 431 496 36,000  Level Minneapolis Center
11:39PM 45.1792 -101.4511 267° West 432 497 36,000  Level Minneapolis Center
11:40PM 45.1708 -101.6211 266° West 432 497 36,000  Level Minneapolis Center
11:41PM 45.1633 -101.7897 266° West 431 496 36,000  Level Minneapolis Center
11:42PM 45.1550 -101.9586 266° West 430 495 36,000  Level Minneapolis Center
11:43PM 45.1469 -102.1286 266° West 433 498 36,000  Level Minneapolis Center
11:44PM 45.1383 -102.2964 266° West 430 495 36,000  Level Minneapolis Center
11:45PM 45.1297 -102.4631 266° West 427 491 36,000  Level Minneapolis Center
11:46PM 45.1211 -102.6306 266° West 427 491 36,000  Level Minneapolis Center
11:47PM 45.1117 -102.7978 265° West 426 490 36,000  Level Minneapolis Center
11:48PM 45.1017 -102.9639 265° West 426 490 36,000  Level Minneapolis Center
11:49PM 45.0928 -103.1289 266° West 423 487 36,000  Level Minneapolis Center
11:50PM 45.0825 -103.2928 265° West 420 483 36,000  Level Minneapolis Center
11:51PM 45.0722 -103.4489 265° West 420 483 36,000  Level Salt Lake Center
11:52PM 45.0625 -103.6061 265° West 420 483 36,000  Level Salt Lake Center
11:53PM 45.0503 -103.7875 265° West 418 481 36,000  Level Salt Lake Center
11:54PM 45.0408 -103.9433 265° West 417 480 36,000  Level Salt Lake Center
11:55PM 45.0311 -104.0969 265° West 412 474 36,000  Level Salt Lake Center
11:56PM 45.0186 -104.2736 264° West 407 468 36,000  Level Salt Lake Center
11:57PM 45.0072 -104.4325 264° West 410 472 36,000  Level Denver Center
11:58PM 44.9956 -104.6067 265° West 410 472 36,000  Level Denver Center
11:59PM 44.9847 -104.7483 264° West 408 470 36,000  Level Salt Lake Center
12:00AM 44.9722 -104.9053 264° West 404 465 36,000  Level Salt Lake Center
12:01AM 44.9619 -105.0631 265° West 404 465 36,000  Level Salt Lake Center
12:02AM 44.9500 -105.2192 264° West 403 464 36,000  Level Salt Lake Center
12:03AM 44.9364 -105.3761 263° West 403 464 36,000  Level Salt Lake Center
12:04AM 44.9217 -105.5658 264° West 406 467 36,000  Level Salt Lake Center
12:05AM 44.9100 -105.7247 264° West 409 471 36,000  Level Salt Lake Center
12:06AM 44.8967 -105.8839 263° West 408 470 36,000  Level Salt Lake Center
12:07AM 44.8822 -106.0447 263° West 414 476 36,000  Level Salt Lake Center
12:08AM 44.8689 -106.2058 263° West 416 479 36,000  Level Salt Lake Center
12:10AM 44.8539 -106.3714 263° West 422 486 36,000  Level Salt Lake Center
12:11AM 44.8394 -106.5367 263° West 425 489 36,000  Level Salt Lake Center
12:12AM 44.8250 -106.6964 263° West 416 479 36,000  Level Salt Lake Center
12:13AM 44.8117 -106.8544 263° West 410 472 36,000  Level Salt Lake Center
12:14AM 44.7967 -107.0158 263° West 416 479 36,000  Level Salt Lake Center
12:15AM 44.7792 -107.2092 263° West 415 478 36,000  Level Salt Lake Center
12:16AM 44.7628 -107.3692 262° West 414 476 36,000  Level Salt Lake Center
12:17AM 44.7469 -107.5325 262° West 419 482 36,000  Level Salt Lake Center
12:18AM 44.7306 -107.6953 262° West 418 481 36,000  Level Salt Lake Center
12:19AM 44.7147 -107.8633 263° West 424 488 36,000  Level Salt Lake Center
12:20AM 44.6958 -108.0306 261° West 423 487 36,000  Level Salt Lake Center
12:21AM 44.6806 -108.1933 263° West 418 481 36,000  Level Salt Lake Center
12:22AM 44.6642 -108.3533 262° West 415 478 36,000  Level Salt Lake Center
12:23AM 44.6478 -108.5133 262° West 415 478 36,000  Level Salt Lake Center
12:24AM 44.6300 -108.6753 261° West 418 481 36,000  Level Salt Lake Center
12:25AM 44.6122 -108.8378 261° West 421 484 36,000  Level Salt Lake Center
12:26AM 44.5939 -108.9972 261° West 416 479 36,000  Level Salt Lake Center
12:27AM 44.5758 -109.1600 261° West 423 487 36,000  Level Salt Lake Center
12:28AM 44.5569 -109.3242 261° West 428 493 36,000  Level Salt Lake Center
12:29AM 44.5375 -109.4981 261° West 424 488 36,000  Level Salt Lake Center
12:30AM 44.5156 -109.6800 260° West 425 489 36,000  Level Salt Lake Center
12:31AM 44.4975 -109.8383 261° West 428 493 36,000  Level Salt Lake Center
12:32AM 44.4789 -109.9956 261° West 428 493 36,000  Level Salt Lake Center
12:33AM 44.4564 -110.1833 261° West 436 502 36,000  Level Salt Lake Center
12:34AM 44.4361 -110.3428 260° West 436 502 36,000  Level Salt Lake Center
12:35AM 44.4161 -110.5022 260° West 435 501 36,000  Level Salt Lake Center
12:36AM 44.3928 -110.6883 260° West 436 502 36,000  Level Salt Lake Center
12:37AM 44.3733 -110.8492 260° West 437 503 36,000  Level Salt Lake Center
12:38AM 44.3525 -111.0081 260° West 433 498 36,000  Level Salt Lake Center
12:39AM 44.3275 -111.1947 259° West 435 501 36,000  Level Salt Lake Center
12:40AM 44.3058 -111.3567 259° West 438 504 36,000  Level Salt Lake Center
12:41AM 44.2842 -111.5206 260° West 443 510 36,000  Level Salt Lake Center
12:42AM 44.2583 -111.7100 259° West 443 510 36,000  Level Salt Lake Center
12:43AM 44.2367 -111.8714 259° West 441 507 36,000  Level Salt Lake Center
12:44AM 44.2136 -112.0344 259° West 445 512 36,000  Level Salt Lake Center
12:45AM 44.1864 -112.2214 259° West 440 506 36,000  Level Salt Lake Center
12:46AM 44.1633 -112.3836 259° West 446 513 36,000  Level Salt Lake Center
12:47AM 44.1389 -112.5469 258° West 450 518 36,000  Level Salt Lake Center
12:48AM 44.1122 -112.7378 259° West 449 517 36,000  Level Salt Lake Center
12:49AM 44.0903 -112.9025 260° West 451 519 36,000  Level Salt Lake Center
12:50AM 44.0669 -113.0661 259° West 452 520 36,000  Level Salt Lake Center
12:51AM 44.0344 -113.2556 257° West 452 520 36,000  Level Salt Lake Center
12:52AM 44.0097 -113.4203 258° West 456 525 36,000  Level Salt Lake Center
12:53AM 43.9847 -113.5869 258° West 461 531 36,000  Level Salt Lake Center
12:54AM 43.9550 -113.7803 258° West 455 524 36,000 -360 Level Salt Lake Center
12:55AM 43.9269 -113.9553 258° West 456 525 35,300 -1,620 Descending Salt Lake Center
12:56AM 43.9006 -114.1286 258° West 458 527 32,800 -2,460 Descending Salt Lake Center
12:57AM 43.8717 -114.3067 257° West 473 544 30,300 -2,400 Descending Salt Lake Center
12:58AM 43.8453 -114.4731 258° West 441 507 28,000 -2,280 Descending Salt Lake Center
12:59AM 43.8197 -114.6278 257° West 411 473 25,800 -2,160 Descending Salt Lake Center
01:00AM 43.7956 -114.7783 258° West 401 461 23,700 -2,160 Descending Salt Lake Center
01:01AM 43.7700 -114.9289 257° West 402 463 21,500 -2,100 Descending Salt Lake Center
01:02AM 43.7450 -115.0761 257° West 395 455 19,500 -1,980 Descending Salt Lake Center
01:03AM 43.7219 -115.2158 257° West 378 435 17,500 -1,980 Descending Salt Lake Center
01:04AM 43.7000 -115.3506 257° West 363 418 15,600 -1,980 Descending Salt Lake Center
01:05AM 43.6717 -115.4100 237° Southwest 359 413 14,600 -1,920 Descending Salt Lake Center
01:05AM 43.6769 -115.4825 276° West 354 407 13,700 -1,920 Descending Salt Lake Center
01:06AM 43.6508 -115.5486 241° Southwest 342 394 12,700 -1,740 Descending Salt Lake Center
01:06AM 43.6550 -115.6139 275° West 341 392 12,000 -720 Descending Salt Lake Center
01:07AM 43.6314 -115.6742 242° Southwest 335 386 12,000 -420 Level Salt Lake Center
01:07AM 43.6347 -115.7119 277° West 336 387 11,600 -1,080 Descending Salt Lake Center
01:08AM 43.5869 -115.7864 228° Southwest 297 342 10,800 -1,620 Descending Salt Lake Center
01:08AM 43.5764 -115.8258 250° West 299 344 10,000 -2,040 Descending Salt Lake Center
01:09AM 43.5389 -115.8819 227° Southwest 288 331 8,800 -1,920 Descending Salt Lake Center
01:09AM 43.5261 -115.9183 244° Southwest 291 335 8,100 -1,140 Descending Salt Lake Center
01:10AM 43.4933 -115.9703 229° Southwest 279 321 7,700 -540 Descending Salt Lake Center
01:10AM 43.4928 -116.0000 269° West 253 291 7,600 -900 Descending Salt Lake Center
01:11AM 43.4986 -116.0519 279° West 198 228 6,800 -1,620 Descending Salt Lake Center
01:11AM 43.5122 -116.0756 308° West 201 231 6,000 -2,100 Descending Salt Lake Center
01:12AM 43.5231 -116.1133 292° West 185 213 4,700 -1,800 Descending Salt Lake Center
01:12AM 43.5328 -116.1375 299° West 187 215 4,200 -1,140 Descending Salt Lake Center
01:13AM 43.5453 -116.1731 296° West 144 166 3,600 -720 Descending Salt Lake Center
01:13AM 43.5514 -116.1933 293° West 161 185 3,500 -300 Descending Salt Lake Center